<?xml version="1.0" encoding="UTF-8" standalone="no" ?>
<gpx xmlns="http://www.topografix.com/GPX/1/1" xmlns:xsi="http://www.w3.org/2001/XMLSchema-instance" xsi:schemaLocation="http://www.topografix.com/GPX/1/1 http://www.topografix.com/GPX/1/1/gpx.xsd" version="1.1" creator="VisuGPX - https://www.visugpx.com">
  <metadata>
    <name>FoussayPaire_Autour_19-22km</name>
    <desc><![CDATA[gnerando idor;8986892_8986940_8986962_9129062_9131846]]></desc>
  </metadata>
  <trk>
    <name><![CDATA[FoussaisP_OuestSud_18.7km-8986962]]></name>
    <extensions>
      <line xmlns="http://www.topografix.com/GPX/gpx_style/0/2">
        <color>FF0000</color>
        <width>4</width>
      </line>
    </extensions>
    <trkseg>
      <trkpt lat="46.52974" lon="-0.68235">
        <ele>84</ele>
        <time>2023-11-01T17:32:21Z</time>
      </trkpt>
      <trkpt lat="46.53067" lon="-0.68197">
        <ele>82</ele>
        <time>2023-11-01T17:34:30Z</time>
      </trkpt>
      <trkpt lat="46.53098" lon="-0.68311">
        <ele>85</ele>
        <time>2023-11-01T17:36:22Z</time>
      </trkpt>
      <trkpt lat="46.5313" lon="-0.68297">
        <ele>85</ele>
        <time>2023-11-01T17:37:07Z</time>
      </trkpt>
      <trkpt lat="46.53288" lon="-0.68778">
        <ele>96</ele>
        <time>2023-11-01T17:45:16Z</time>
      </trkpt>
      <trkpt lat="46.53232" lon="-0.68834">
        <ele>96</ele>
        <time>2023-11-01T17:46:47Z</time>
      </trkpt>
      <trkpt lat="46.53254" lon="-0.68921">
        <ele>98</ele>
        <time>2023-11-01T17:48:12Z</time>
      </trkpt>
      <trkpt lat="46.5327" lon="-0.69145">
        <ele>93</ele>
        <time>2023-11-01T17:51:39Z</time>
      </trkpt>
      <trkpt lat="46.53301" lon="-0.69186">
        <ele>92</ele>
        <time>2023-11-01T17:52:35Z</time>
      </trkpt>
      <trkpt lat="46.5344" lon="-0.69136">
        <ele>91</ele>
        <time>2023-11-01T17:55:46Z</time>
      </trkpt>
      <trkpt lat="46.53566" lon="-0.6937">
        <ele>88</ele>
        <time>2023-11-01T18:00:19Z</time>
      </trkpt>
      <trkpt lat="46.53634" lon="-0.69383">
        <ele>90</ele>
        <time>2023-11-01T18:01:50Z</time>
      </trkpt>
      <trkpt lat="46.53734" lon="-0.69803">
        <ele>87</ele>
        <time>2023-11-01T18:08:38Z</time>
      </trkpt>
      <trkpt lat="46.53844" lon="-0.697">
        <ele>86</ele>
        <time>2023-11-01T18:11:33Z</time>
      </trkpt>
      <trkpt lat="46.53932" lon="-0.69876">
        <ele>81</ele>
        <time>2023-11-01T18:14:53Z</time>
      </trkpt>
      <trkpt lat="46.53979" lon="-0.6982">
        <ele>82</ele>
        <time>2023-11-01T18:16:14Z</time>
      </trkpt>
      <trkpt lat="46.54189" lon="-0.69979">
        <ele>89</ele>
        <time>2023-11-01T18:21:30Z</time>
      </trkpt>
      <trkpt lat="46.5431" lon="-0.69945">
        <ele>91</ele>
        <time>2023-11-01T18:24:14Z</time>
      </trkpt>
      <trkpt lat="46.54354" lon="-0.70026">
        <ele>93</ele>
        <time>2023-11-01T18:25:49Z</time>
      </trkpt>
      <trkpt lat="46.54419" lon="-0.70056">
        <ele>90</ele>
        <time>2023-11-01T18:27:20Z</time>
      </trkpt>
      <trkpt lat="46.54437" lon="-0.70147">
        <ele>90</ele>
        <time>2023-11-01T18:28:47Z</time>
      </trkpt>
      <trkpt lat="46.54564" lon="-0.70078">
        <ele>90</ele>
        <time>2023-11-01T18:31:48Z</time>
      </trkpt>
      <trkpt lat="46.5483" lon="-0.69782">
        <ele>96</ele>
        <time>2023-11-01T18:39:15Z</time>
      </trkpt>
      <trkpt lat="46.54977" lon="-0.69443">
        <ele>101</ele>
        <time>2023-11-01T18:45:22Z</time>
      </trkpt>
      <trkpt lat="46.5516" lon="-0.69464">
        <ele>102</ele>
        <time>2023-11-01T18:49:27Z</time>
      </trkpt>
      <trkpt lat="46.55299" lon="-0.69546">
        <ele>104</ele>
        <time>2023-11-01T18:52:48Z</time>
      </trkpt>
      <trkpt lat="46.55361" lon="-0.69314">
        <ele>106</ele>
        <time>2023-11-01T18:56:36Z</time>
      </trkpt>
      <trkpt lat="46.55346" lon="-0.69241">
        <ele>106</ele>
        <time>2023-11-01T18:57:46Z</time>
      </trkpt>
      <trkpt lat="46.55378" lon="-0.69134">
        <ele>107</ele>
        <time>2023-11-01T18:59:33Z</time>
      </trkpt>
      <trkpt lat="46.55561" lon="-0.68941">
        <ele>109</ele>
        <time>2023-11-01T19:04:35Z</time>
      </trkpt>
      <trkpt lat="46.55682" lon="-0.69014">
        <ele>106</ele>
        <time>2023-11-01T19:07:29Z</time>
      </trkpt>
      <trkpt lat="46.55662" lon="-0.69284">
        <ele>100</ele>
        <time>2023-11-01T19:11:39Z</time>
      </trkpt>
      <trkpt lat="46.55712" lon="-0.69559">
        <ele>113</ele>
        <time>2023-11-01T19:16:00Z</time>
      </trkpt>
      <trkpt lat="46.55647" lon="-0.69627">
        <ele>109</ele>
        <time>2023-11-01T19:17:47Z</time>
      </trkpt>
      <trkpt lat="46.55558" lon="-0.70275">
        <ele>104</ele>
        <time>2023-11-01T19:27:53Z</time>
      </trkpt>
      <trkpt lat="46.55496" lon="-0.70516">
        <ele>104</ele>
        <time>2023-11-01T19:31:49Z</time>
      </trkpt>
      <trkpt lat="46.55263" lon="-0.7076">
        <ele>95</ele>
        <time>2023-11-01T19:38:12Z</time>
      </trkpt>
      <trkpt lat="46.5519" lon="-0.70692">
        <ele>93</ele>
        <time>2023-11-01T19:40:08Z</time>
      </trkpt>
      <trkpt lat="46.55136" lon="-0.7073">
        <ele>90</ele>
        <time>2023-11-01T19:41:28Z</time>
      </trkpt>
      <trkpt lat="46.55107" lon="-0.70692">
        <ele>92</ele>
        <time>2023-11-01T19:42:20Z</time>
      </trkpt>
      <trkpt lat="46.55059" lon="-0.70809">
        <ele>89</ele>
        <time>2023-11-01T19:44:25Z</time>
      </trkpt>
      <trkpt lat="46.54995" lon="-0.70884">
        <ele>87</ele>
        <time>2023-11-01T19:46:15Z</time>
      </trkpt>
      <trkpt lat="46.54929" lon="-0.70882">
        <ele>88</ele>
        <time>2023-11-01T19:47:43Z</time>
      </trkpt>
      <trkpt lat="46.5485" lon="-0.70896">
        <ele>89</ele>
        <time>2023-11-01T19:49:29Z</time>
      </trkpt>
      <trkpt lat="46.54618" lon="-0.70968">
        <ele>91</ele>
        <time>2023-11-01T19:54:46Z</time>
      </trkpt>
      <trkpt lat="46.54573" lon="-0.71035">
        <ele>90</ele>
        <time>2023-11-01T19:56:12Z</time>
      </trkpt>
      <trkpt lat="46.54475" lon="-0.70876">
        <ele>92</ele>
        <time>2023-11-01T19:59:28Z</time>
      </trkpt>
      <trkpt lat="46.54419" lon="-0.70923">
        <ele>91</ele>
        <time>2023-11-01T20:00:54Z</time>
      </trkpt>
      <trkpt lat="46.54269" lon="-0.70541">
        <ele>92</ele>
        <time>2023-11-01T20:07:38Z</time>
      </trkpt>
      <trkpt lat="46.53926" lon="-0.70571">
        <ele>88</ele>
        <time>2023-11-01T20:15:16Z</time>
      </trkpt>
      <trkpt lat="46.5374" lon="-0.70722">
        <ele>84</ele>
        <time>2023-11-01T20:20:00Z</time>
      </trkpt>
      <trkpt lat="46.53667" lon="-0.70765">
        <ele>80</ele>
        <time>2023-11-01T20:21:46Z</time>
      </trkpt>
      <trkpt lat="46.53596" lon="-0.70696">
        <ele>81</ele>
        <time>2023-11-01T20:23:39Z</time>
      </trkpt>
      <trkpt lat="46.5354" lon="-0.70606">
        <ele>81</ele>
        <time>2023-11-01T20:25:31Z</time>
      </trkpt>
      <trkpt lat="46.53324" lon="-0.70464">
        <ele>73</ele>
        <time>2023-11-01T20:30:47Z</time>
      </trkpt>
      <trkpt lat="46.5328" lon="-0.70262">
        <ele>75</ele>
        <time>2023-11-01T20:34:02Z</time>
      </trkpt>
      <trkpt lat="46.53176" lon="-0.70232">
        <ele>76</ele>
        <time>2023-11-01T20:36:23Z</time>
      </trkpt>
      <trkpt lat="46.53117" lon="-0.70155">
        <ele>79</ele>
        <time>2023-11-01T20:38:09Z</time>
      </trkpt>
      <trkpt lat="46.52899" lon="-0.70267">
        <ele>87</ele>
        <time>2023-11-01T20:43:18Z</time>
      </trkpt>
      <trkpt lat="46.52925" lon="-0.70426">
        <ele>87</ele>
        <time>2023-11-01T20:45:48Z</time>
      </trkpt>
      <trkpt lat="46.52745" lon="-0.7055">
        <ele>85</ele>
        <time>2023-11-01T20:50:13Z</time>
      </trkpt>
      <trkpt lat="46.5266" lon="-0.70447">
        <ele>88</ele>
        <time>2023-11-01T20:52:41Z</time>
      </trkpt>
      <trkpt lat="46.52568" lon="-0.70709">
        <ele>85</ele>
        <time>2023-11-01T20:57:11Z</time>
      </trkpt>
      <trkpt lat="46.52426" lon="-0.70584">
        <ele>88</ele>
        <time>2023-11-01T21:00:53Z</time>
      </trkpt>
      <trkpt lat="46.52246" lon="-0.70601">
        <ele>91</ele>
        <time>2023-11-01T21:04:53Z</time>
      </trkpt>
      <trkpt lat="46.52037" lon="-0.70909">
        <ele>94</ele>
        <time>2023-11-01T21:11:31Z</time>
      </trkpt>
      <trkpt lat="46.51981" lon="-0.71138">
        <ele>94</ele>
        <time>2023-11-01T21:15:14Z</time>
      </trkpt>
      <trkpt lat="46.51783" lon="-0.71717">
        <ele>93</ele>
        <time>2023-11-01T21:25:08Z</time>
      </trkpt>
      <trkpt lat="46.51567" lon="-0.71756">
        <ele>85</ele>
        <time>2023-11-01T21:29:58Z</time>
      </trkpt>
      <trkpt lat="46.51319" lon="-0.71709">
        <ele>78</ele>
        <time>2023-11-01T21:35:32Z</time>
      </trkpt>
      <trkpt lat="46.51074" lon="-0.71558">
        <ele>92</ele>
        <time>2023-11-01T21:41:27Z</time>
      </trkpt>
      <trkpt lat="46.50956" lon="-0.7167">
        <ele>98</ele>
        <time>2023-11-01T21:44:35Z</time>
      </trkpt>
      <trkpt lat="46.50858" lon="-0.71631">
        <ele>99</ele>
        <time>2023-11-01T21:46:51Z</time>
      </trkpt>
      <trkpt lat="46.50746" lon="-0.7149">
        <ele>100</ele>
        <time>2023-11-01T21:50:08Z</time>
      </trkpt>
      <trkpt lat="46.50592" lon="-0.71468">
        <ele>104</ele>
        <time>2023-11-01T21:53:35Z</time>
      </trkpt>
      <trkpt lat="46.50477" lon="-0.71352">
        <ele>102</ele>
        <time>2023-11-01T21:56:42Z</time>
      </trkpt>
      <trkpt lat="46.5033" lon="-0.71039">
        <ele>105</ele>
        <time>2023-11-01T22:02:30Z</time>
      </trkpt>
      <trkpt lat="46.50143" lon="-0.70245">
        <ele>98</ele>
        <time>2023-11-01T22:15:21Z</time>
      </trkpt>
      <trkpt lat="46.50019" lon="-0.69484">
        <ele>79</ele>
        <time>2023-11-01T22:27:19Z</time>
      </trkpt>
      <trkpt lat="46.50108" lon="-0.69288">
        <ele>71</ele>
        <time>2023-11-01T22:30:55Z</time>
      </trkpt>
      <trkpt lat="46.50353" lon="-0.69125">
        <ele>68</ele>
        <time>2023-11-01T22:36:54Z</time>
      </trkpt>
      <trkpt lat="46.50669" lon="-0.69112">
        <ele>81</ele>
        <time>2023-11-01T22:43:56Z</time>
      </trkpt>
      <trkpt lat="46.5121" lon="-0.69035">
        <ele>88</ele>
        <time>2023-11-01T22:56:01Z</time>
      </trkpt>
      <trkpt lat="46.5149" lon="-0.69065">
        <ele>82</ele>
        <time>2023-11-01T23:02:16Z</time>
      </trkpt>
      <trkpt lat="46.5152" lon="-0.69258">
        <ele>83</ele>
        <time>2023-11-01T23:05:18Z</time>
      </trkpt>
      <trkpt lat="46.52066" lon="-0.68842">
        <ele>87</ele>
        <time>2023-11-01T23:19:00Z</time>
      </trkpt>
      <trkpt lat="46.52394" lon="-0.68593">
        <ele>88</ele>
        <time>2023-11-01T23:27:14Z</time>
      </trkpt>
      <trkpt lat="46.52415" lon="-0.68511">
        <ele>87</ele>
        <time>2023-11-01T23:28:35Z</time>
      </trkpt>
      <trkpt lat="46.52639" lon="-0.68494">
        <ele>86</ele>
        <time>2023-11-01T23:33:34Z</time>
      </trkpt>
      <trkpt lat="46.52618" lon="-0.68293">
        <ele>84</ele>
        <time>2023-11-01T23:36:41Z</time>
      </trkpt>
      <trkpt lat="46.52745" lon="-0.68323">
        <ele>81</ele>
        <time>2023-11-01T23:39:32Z</time>
      </trkpt>
      <trkpt lat="46.52757" lon="-0.68194">
        <ele>80</ele>
        <time>2023-11-01T23:41:32Z</time>
      </trkpt>
      <trkpt lat="46.52955" lon="-0.6819">
        <ele>82</ele>
        <time>2023-11-01T23:45:56Z</time>
      </trkpt>
      <trkpt lat="46.52978" lon="-0.68215">
        <ele>83</ele>
        <time>2023-11-01T23:46:34Z</time>
      </trkpt>
    </trkseg>
  </trk>
</gpx>